createdAt,value
2023-03-26T00:00:35.196Z,17.05
2023-03-26T00:03:10.204Z,17.15
2023-03-26T00:05:45.717Z,16.82
2023-03-26T00:08:20.083Z,17.90
2023-03-26T00:10:52.907Z,17.73
2023-03-26T00:13:26.421Z,17.67
2023-03-26T00:15:59.763Z,18.50
2023-03-26T00:18:34.829Z,16.50
2023-03-26T00:21:10.752Z,19.02
2023-03-26T00:23:44.073Z,19.05
2023-03-26T00:26:19.124Z,17.82
2023-03-26T00:28:53.291Z,18.35
2023-03-26T00:31:26.476Z,18.10
2023-03-26T00:34:01.783Z,20.12
2023-03-26T00:36:36.366Z,18.12
2023-03-26T00:39:10.337Z,18.48
2023-03-26T00:41:44.525Z,19.87
2023-03-26T00:44:17.723Z,19.02
2023-03-26T00:46:51.144Z,18.73
2023-03-26T00:49:25.658Z,18.87
2023-03-26T00:51:59.672Z,19.02
2023-03-26T00:54:33.169Z,19.57
2023-03-26T00:57:07.077Z,18.53
2023-03-26T00:59:40.734Z,18.80
2023-03-26T01:02:18.619Z,19.25
2023-03-26T01:05:00.750Z,20.92
2023-03-26T01:07:35.477Z,19.82
2023-03-26T01:10:09.294Z,16.75
2023-03-26T01:12:42.520Z,19.48
2023-03-26T01:15:15.574Z,19.50
2023-03-26T01:17:51.129Z,18.80
2023-03-26T01:20:27.854Z,18.35
2023-03-26T01:23:05.462Z,18.27
2023-03-26T01:25:42.283Z,18.92
2023-03-26T01:28:17.076Z,19.52
2023-03-26T01:31:03.399Z,19.50
2023-03-26T01:33:47.148Z,18.80
2023-03-26T01:36:32.659Z,18.10
2023-03-26T01:39:33.785Z,19.90
2023-03-26T01:42:19.838Z,17.77
2023-03-26T01:44:57.998Z,19.12
2023-03-26T01:47:31.881Z,18.85
2023-03-26T01:50:04.916Z,17.67
2023-03-26T01:52:37.874Z,16.57
2023-03-26T01:55:12.046Z,17.92
2023-03-26T01:58:11.013Z,17.57
2023-03-26T02:01:09.662Z,17.85
2023-03-26T02:03:56.496Z,18.60
2023-03-26T02:06:34.632Z,15.28
2023-03-26T02:09:10.404Z,18.23
2023-03-26T02:11:44.617Z,20.52
2023-03-26T02:14:18.141Z,17.87
2023-03-26T02:16:51.713Z,18.52
2023-03-26T02:19:25.703Z,18.65
2023-03-26T02:22:00.255Z,18.30
2023-03-26T02:24:34.402Z,18.77
2023-03-26T02:27:12.663Z,18.82
2023-03-26T02:29:45.509Z,19.25
2023-03-26T02:32:19.781Z,20.00
2023-03-26T02:34:52.842Z,20.40
2023-03-26T02:37:26.359Z,18.37
2023-03-26T02:40:01.317Z,19.37
2023-03-26T02:42:36.184Z,20.55
2023-03-26T02:45:09.895Z,18.00
2023-03-26T02:47:54.823Z,18.50
2023-03-26T02:50:46.406Z,17.57
2023-03-26T02:53:28.631Z,17.85
2023-03-26T02:56:03.286Z,19.42
2023-03-26T02:58:38.228Z,18.55
2023-03-26T03:01:13.328Z,18.62
2023-03-26T03:03:49.210Z,16.30
2023-03-26T03:06:26.659Z,16.80
2023-03-26T03:09:03.023Z,18.25
2023-03-26T03:11:43.708Z,17.05
2023-03-26T03:14:17.105Z,17.20
2023-03-26T03:16:50.112Z,16.90
2023-03-26T03:19:23.111Z,17.75
2023-03-26T03:21:56.838Z,16.85
2023-03-26T03:24:32.082Z,17.40
2023-03-26T03:27:05.582Z,16.60
2023-03-26T03:29:41.634Z,15.18
2023-03-26T03:32:16.335Z,18.42
2023-03-26T03:34:52.073Z,17.52
2023-03-26T03:37:25.614Z,18.12
2023-03-26T03:39:59.912Z,16.32
2023-03-26T03:42:35.717Z,16.52
2023-03-26T03:45:09.710Z,17.27
2023-03-26T03:48:01.021Z,17.90
2023-03-26T03:50:36.248Z,18.35
2023-03-26T03:53:15.024Z,17.85
2023-03-26T03:55:54.471Z,16.12
2023-03-26T03:58:31.316Z,15.13
2023-03-26T04:01:06.508Z,16.20
2023-03-26T04:03:50.363Z,15.98
2023-03-26T04:08:58.962Z,17.25
2023-03-26T04:11:32.448Z,16.10
2023-03-26T04:14:24.016Z,15.53
2023-03-26T04:17:02.582Z,16.40
2023-03-26T04:19:37.712Z,17.17
2023-03-26T04:22:12.418Z,14.65
2023-03-26T04:24:48.993Z,14.78
2023-03-26T04:27:28.893Z,15.10
2023-03-26T04:30:05.922Z,14.50
2023-03-26T04:32:40.662Z,13.25
2023-03-26T04:35:17.233Z,12.93
2023-03-26T04:37:53.234Z,11.90
2023-03-26T04:40:29.732Z,10.05
2023-03-26T04:43:04.789Z,10.20
2023-03-26T04:45:39.752Z,10.68
2023-03-26T04:48:16.538Z,11.90
2023-03-26T04:50:50.641Z,11.75
2023-03-26T04:53:26.295Z,11.38
2023-03-26T04:56:43.631Z,11.38
2023-03-26T04:59:37.281Z,12.00
2023-03-26T05:02:15.798Z,12.85
2023-03-26T05:04:53.799Z,11.10
2023-03-26T05:07:26.801Z,11.15
2023-03-26T05:10:03.988Z,10.15
2023-03-26T05:12:46.003Z,9.73
2023-03-26T05:15:20.923Z,10.43
2023-03-26T05:18:00.571Z,11.38
2023-03-26T05:20:46.645Z,10.23
2023-03-26T05:23:21.160Z,10.68
2023-03-26T05:25:56.234Z,12.15
2023-03-26T05:28:29.835Z,12.80
2023-03-26T05:31:08.619Z,11.80
2023-03-26T05:33:43.727Z,11.75
2023-03-26T05:36:19.407Z,12.78
2023-03-26T05:38:54.320Z,12.28
2023-03-26T05:41:32.041Z,12.45
2023-03-26T05:44:05.311Z,13.25
2023-03-26T05:46:39.221Z,12.55
2023-03-26T05:49:13.581Z,12.78
2023-03-26T05:51:47.257Z,13.88
2023-03-26T05:54:22.579Z,13.30
2023-03-26T05:57:14.132Z,11.88
2023-03-26T06:00:00.790Z,12.05
2023-03-26T06:02:52.444Z,12.95
2023-03-26T06:05:40.629Z,12.98
2023-03-26T06:08:16.816Z,12.30
2023-03-26T06:10:52.059Z,10.82
2023-03-26T06:13:25.489Z,11.08
2023-03-26T06:15:59.862Z,11.85
2023-03-26T06:18:37.889Z,13.15
2023-03-26T06:21:28.009Z,11.93
2023-03-26T06:24:02.613Z,12.35
2023-03-26T06:26:40.111Z,10.93
2023-03-26T06:29:28.312Z,10.88
2023-03-26T06:32:18.440Z,10.32
2023-03-26T06:34:42.793Z,12.15
2023-03-26T06:37:16.631Z,11.88
2023-03-26T06:39:50.979Z,11.70
2023-03-26T06:42:32.144Z,10.15
2023-03-26T06:45:07.282Z,10.63
2023-03-26T06:50:31.880Z,9.15
2023-03-26T06:53:15.998Z,9.18
2023-03-26T06:56:00.312Z,9.20
2023-03-26T06:58:33.642Z,8.23
2023-03-26T07:01:26.654Z,9.70
2023-03-26T07:04:17.501Z,8.68
2023-03-26T07:07:08.445Z,8.00
2023-03-26T07:09:59.598Z,9.23
2023-03-26T07:12:49.874Z,8.25
2023-03-26T07:15:30.060Z,8.43
2023-03-26T07:18:11.741Z,7.45
2023-03-26T07:20:48.835Z,7.30
2023-03-26T07:23:24.382Z,7.72
2023-03-26T07:26:00.057Z,7.90
2023-03-26T07:29:04.780Z,8.60
2023-03-26T07:32:00.628Z,8.28
2023-03-26T07:34:56.454Z,9.23
2023-03-26T07:38:07.369Z,8.80
2023-03-26T07:41:11.153Z,9.08
2023-03-26T07:44:05.891Z,9.70
2023-03-26T07:46:52.147Z,9.23
2023-03-26T07:49:25.876Z,9.75
2023-03-26T07:52:16.842Z,9.05
2023-03-26T07:54:59.642Z,8.65
2023-03-26T07:58:12.322Z,9.73
2023-03-26T08:01:05.024Z,9.75
2023-03-26T08:04:00.834Z,9.53
2023-03-26T08:06:39.764Z,9.68
2023-03-26T08:09:58.240Z,9.73
2023-03-26T08:13:21.562Z,8.70
2023-03-26T08:16:04.640Z,8.88
2023-03-26T08:19:25.734Z,8.28
2023-03-26T08:22:17.097Z,8.10
2023-03-26T08:25:33.737Z,8.38
2023-03-26T08:28:35.393Z,8.20
2023-03-26T08:31:12.910Z,7.97
2023-03-26T08:33:46.132Z,8.65
2023-03-26T08:36:19.191Z,8.53
2023-03-26T08:38:52.910Z,7.80
2023-03-26T08:41:52.497Z,8.48
2023-03-26T08:44:50.648Z,7.17
2023-03-26T08:47:59.428Z,7.45
2023-03-26T08:50:59.833Z,6.60
2023-03-26T08:54:10.679Z,8.25
2023-03-26T08:57:16.167Z,6.70
2023-03-26T09:00:15.943Z,7.22
2023-03-26T09:03:25.316Z,8.18
2023-03-26T09:06:38.134Z,6.97
2023-03-26T09:09:36.553Z,7.47
2023-03-26T09:12:49.857Z,7.00
2023-03-26T09:15:48.576Z,6.25
2023-03-26T09:18:54.466Z,6.80
2023-03-26T09:22:02.459Z,8.20
2023-03-26T09:24:58.399Z,7.28
2023-03-26T09:27:55.921Z,9.40
2023-03-26T09:31:07.412Z,7.47
2023-03-26T09:33:55.778Z,8.45
2023-03-26T09:36:55.884Z,7.10
2023-03-26T09:39:38.091Z,7.12
2023-03-26T09:42:20.992Z,7.47
2023-03-26T09:45:06.447Z,8.05
2023-03-26T09:47:55.875Z,9.00
2023-03-26T09:50:45.524Z,7.75
2023-03-26T09:53:32.221Z,8.25
2023-03-26T09:56:18.802Z,7.28
2023-03-26T09:59:07.100Z,7.10
2023-03-26T10:02:20.512Z,6.70
2023-03-26T10:05:17.996Z,7.20
2023-03-26T10:08:04.507Z,6.85
2023-03-26T10:10:44.718Z,6.47
2023-03-26T10:13:28.308Z,7.65
2023-03-26T10:16:35.296Z,7.40
2023-03-26T10:19:34.463Z,12.73
2023-03-26T10:22:30.962Z,7.62
2023-03-26T10:25:34.099Z,6.78
2023-03-26T10:28:39.764Z,6.65
2023-03-26T10:31:37.652Z,5.75
2023-03-26T10:34:29.200Z,7.25
2023-03-26T10:37:13.487Z,5.85
2023-03-26T10:40:10.017Z,6.60
2023-03-26T10:42:54.051Z,6.80
2023-03-26T10:46:02.381Z,8.13
2023-03-26T10:48:55.048Z,7.85
2023-03-26T10:52:09.544Z,6.00
2023-03-26T10:55:18.402Z,8.55
2023-03-26T10:58:06.265Z,8.40
2023-03-26T11:00:47.420Z,7.22
2023-03-26T11:03:49.374Z,4.55
2023-03-26T11:06:41.848Z,4.67
2023-03-26T11:09:47.343Z,4.37
2023-03-26T11:12:40.205Z,4.47
2023-03-26T11:15:41.707Z,4.67
2023-03-26T11:18:38.716Z,4.05
2023-03-26T11:21:41.906Z,4.10
2023-03-26T11:24:28.951Z,4.85
2023-03-26T11:27:14.936Z,4.03
2023-03-26T11:30:04.898Z,4.67
2023-03-26T11:32:46.560Z,4.12
2023-03-26T11:35:41.961Z,4.05
2023-03-26T11:38:42.219Z,4.37
2023-03-26T11:41:26.370Z,5.75
2023-03-26T11:44:34.014Z,7.70
2023-03-26T11:47:12.463Z,4.30
2023-03-26T11:49:48.212Z,4.45
2023-03-26T11:52:21.909Z,3.90
2023-03-26T11:54:56.565Z,4.22
2023-03-26T11:57:33.545Z,3.85
2023-03-26T12:00:20.966Z,2.87
2023-03-26T12:02:59.998Z,3.72
2023-03-26T12:05:37.604Z,3.70
2023-03-26T12:08:34.287Z,3.90
2023-03-26T12:11:11.937Z,3.58
2023-03-26T12:13:58.631Z,4.00
2023-03-26T12:16:32.679Z,3.70
2023-03-26T12:19:21.165Z,4.17
2023-03-26T12:21:54.909Z,3.92
2023-03-26T12:24:34.185Z,3.77
2023-03-26T12:27:29.027Z,3.65
2023-03-26T12:30:12.596Z,3.12
2023-03-26T12:32:47.362Z,3.42
2023-03-26T12:38:24.120Z,3.70
2023-03-26T12:41:08.200Z,3.47
2023-03-26T12:44:55.268Z,3.58
2023-03-26T12:47:58.376Z,3.72
2023-03-26T12:49:13.299Z,4.05
2023-03-26T12:52:13.307Z,3.52
2023-03-26T12:54:53.913Z,4.35
2023-03-26T12:57:34.651Z,5.75
2023-03-26T13:00:38.158Z,5.72
2023-03-26T13:03:32.871Z,4.22
2023-03-26T13:06:59.298Z,3.58
2023-03-26T13:09:23.418Z,4.40
2023-03-26T13:12:26.007Z,3.90
2023-03-26T13:15:06.987Z,3.85
2023-03-26T13:17:50.464Z,3.30
2023-03-26T13:20:52.880Z,3.90
2023-03-26T13:23:36.385Z,3.98
2023-03-26T13:26:29.230Z,4.35
2023-03-26T13:29:58.418Z,4.15
2023-03-26T13:33:05.249Z,4.37
2023-03-26T13:36:14.399Z,7.45
2023-03-26T13:38:59.157Z,6.08
2023-03-26T13:41:37.782Z,5.80
2023-03-26T13:44:22.823Z,6.17
2023-03-26T13:47:03.619Z,5.90
2023-03-26T13:49:41.602Z,5.50
2023-03-26T13:52:25.131Z,6.45
2023-03-26T13:55:21.121Z,6.60
2023-03-26T13:58:13.991Z,8.43
2023-03-26T14:00:57.937Z,8.83
2023-03-26T14:03:58.293Z,7.15
2023-03-26T14:06:40.274Z,8.53
2023-03-26T14:09:23.945Z,8.05
2023-03-26T14:12:21.627Z,7.20
2023-03-26T14:15:04.666Z,5.83
2023-03-26T14:17:52.187Z,7.80
2023-03-26T14:20:58.503Z,7.42
2023-03-26T14:23:41.758Z,8.38
2023-03-26T14:27:05.814Z,9.83
2023-03-26T14:30:02.942Z,7.78
2023-03-26T14:32:56.364Z,7.65
2023-03-26T14:36:02.881Z,7.70
2023-03-26T14:38:52.442Z,7.47
2023-03-26T14:41:54.551Z,8.63
2023-03-26T14:44:52.160Z,8.25
2023-03-26T14:47:26.947Z,7.33
2023-03-26T14:50:40.894Z,9.03
2023-03-26T14:53:30.225Z,7.58
2023-03-26T14:56:10.464Z,7.72
2023-03-26T14:59:26.274Z,7.72
2023-03-26T15:02:19.084Z,8.10
2023-03-26T15:05:30.420Z,7.70
2023-03-26T15:08:58.915Z,7.65
2023-03-26T15:12:12.141Z,6.95
2023-03-26T15:15:26.637Z,7.60
2023-03-26T15:18:16.710Z,7.85
2023-03-26T15:21:09.214Z,9.75
2023-03-26T15:24:28.024Z,9.00
2023-03-26T15:27:38.331Z,8.48
2023-03-26T15:30:45.040Z,6.55
2023-03-26T15:34:00.908Z,6.65
2023-03-26T15:36:53.879Z,6.67
2023-03-26T15:39:59.829Z,6.28
2023-03-26T15:43:03.929Z,6.37
2023-03-26T15:45:44.396Z,6.37
2023-03-26T15:48:25.265Z,5.87
2023-03-26T15:51:22.201Z,5.78
2023-03-26T15:54:24.060Z,5.25
2023-03-26T15:57:24.163Z,5.60
2023-03-26T16:00:14.835Z,5.60
2023-03-26T16:03:14.313Z,5.50
2023-03-26T16:06:16.010Z,4.83
2023-03-26T16:09:00.794Z,5.65
2023-03-26T16:11:54.213Z,5.33
2023-03-26T16:14:48.480Z,5.10
2023-03-26T16:20:35.341Z,5.10
2023-03-26T16:23:14.976Z,5.00
2023-03-26T16:26:10.853Z,5.28
2023-03-26T16:28:55.729Z,5.10
2023-03-26T16:31:37.571Z,4.55
2023-03-26T16:34:32.080Z,5.45
2023-03-26T16:37:09.785Z,5.35
2023-03-26T16:39:44.558Z,5.45
2023-03-26T16:42:34.296Z,5.33
2023-03-26T16:45:37.496Z,4.70
2023-03-26T16:48:27.543Z,5.28
2023-03-26T16:51:29.250Z,4.90
2023-03-26T16:54:09.881Z,4.42
2023-03-26T16:57:06.991Z,5.83
2023-03-26T17:00:32.750Z,4.87
2023-03-26T17:03:38.098Z,6.17
2023-03-26T17:06:34.844Z,5.08
2023-03-26T17:09:27.905Z,5.65
2023-03-26T17:12:45.817Z,5.50
2023-03-26T17:15:43.650Z,5.75
2023-03-26T17:18:56.448Z,5.12
2023-03-26T17:21:58.685Z,4.80
2023-03-26T17:24:57.465Z,4.65
2023-03-26T17:28:17.804Z,4.05
2023-03-26T17:31:07.968Z,3.20
2023-03-26T17:33:42.286Z,3.47
2023-03-26T17:41:58.919Z,3.92
2023-03-26T17:44:53.079Z,3.33
2023-03-26T17:47:49.073Z,2.98
2023-03-26T17:50:33.408Z,3.67
2023-03-26T17:53:22.730Z,3.20
2023-03-26T17:55:57.020Z,2.50
2023-03-26T17:58:35.975Z,2.72
2023-03-26T18:01:34.437Z,2.47
2023-03-26T18:04:11.390Z,2.22
2023-03-26T18:07:32.970Z,2.20
2023-03-26T18:10:35.425Z,2.10
2023-03-26T18:13:38.755Z,2.02
2023-03-26T18:16:26.553Z,1.72
2023-03-26T18:19:14.299Z,1.77
2023-03-26T18:21:52.562Z,2.20
2023-03-26T18:24:33.440Z,2.20
2023-03-26T18:27:19.856Z,2.35
2023-03-26T18:30:02.753Z,2.60
2023-03-26T18:32:36.050Z,2.42
2023-03-26T18:35:24.453Z,2.60
2023-03-26T18:38:00.327Z,2.77
2023-03-26T18:40:42.756Z,2.35
2023-03-26T18:43:32.489Z,2.40
2023-03-26T18:45:57.092Z,2.45
2023-03-26T18:48:31.287Z,2.47
2023-03-26T18:51:07.171Z,2.33
2023-03-26T18:53:57.168Z,2.25
2023-03-26T18:56:42.654Z,2.33
2023-03-26T18:59:34.123Z,2.17
2023-03-26T19:02:14.092Z,2.40
2023-03-26T19:04:49.369Z,2.02
2023-03-26T19:07:26.837Z,2.20
2023-03-26T19:10:01.590Z,2.55
2023-03-26T19:12:36.992Z,2.90
2023-03-26T19:15:18.461Z,2.67
2023-03-26T19:17:56.981Z,2.77
2023-03-26T19:20:34.688Z,2.35
2023-03-26T19:23:09.224Z,2.72
2023-03-26T19:25:55.004Z,2.83
2023-03-26T19:28:33.726Z,2.90
2023-03-26T19:31:26.035Z,2.77
2023-03-26T19:34:16.021Z,3.22
2023-03-26T19:37:04.523Z,2.30
2023-03-26T19:39:44.794Z,2.47
2023-03-26T19:42:43.784Z,2.58
2023-03-26T19:45:11.222Z,2.37
2023-03-26T19:47:50.090Z,2.40
2023-03-26T19:50:30.770Z,2.33
2023-03-26T19:53:25.231Z,2.85
2023-03-26T19:56:13.594Z,2.40
2023-03-26T19:58:46.755Z,2.92
2023-03-26T20:01:28.412Z,3.02
2023-03-26T20:04:07.637Z,2.85
2023-03-26T20:06:44.099Z,2.60
2023-03-26T20:09:16.808Z,3.22
2023-03-26T20:11:50.639Z,3.52
2023-03-26T20:16:57.354Z,3.83
2023-03-26T20:19:30.891Z,3.62
2023-03-26T20:22:06.254Z,4.58
2023-03-26T20:24:41.694Z,3.70
2023-03-26T20:27:16.533Z,3.33
2023-03-26T20:29:49.786Z,4.05
2023-03-26T20:32:26.971Z,3.58
2023-03-26T20:34:59.223Z,3.77
2023-03-26T20:37:33.536Z,3.37
2023-03-26T20:42:42.594Z,3.47
2023-03-26T20:45:22.865Z,3.35
2023-03-26T20:47:57.824Z,3.70
2023-03-26T20:50:31.657Z,3.45
2023-03-26T20:53:05.726Z,4.17
2023-03-26T20:55:38.950Z,4.20
2023-03-26T20:58:15.559Z,3.75
2023-03-26T21:00:51.121Z,4.00
2023-03-26T21:03:24.341Z,3.87
2023-03-26T21:06:03.717Z,3.70
2023-03-26T21:08:38.180Z,3.92
2023-03-26T21:11:57.425Z,4.00
2023-03-26T21:14:44.562Z,4.10
2023-03-26T21:17:20.954Z,3.83
2023-03-26T21:19:55.031Z,4.03
2023-03-26T21:23:07.826Z,4.30
2023-03-26T21:25:52.922Z,4.78
2023-03-26T21:28:42.362Z,4.15
2023-03-26T21:31:23.394Z,3.98
2023-03-26T21:33:57.138Z,4.70
2023-03-26T21:36:30.777Z,4.70
2023-03-26T21:39:05.394Z,4.78
2023-03-26T21:42:05.166Z,4.10
2023-03-26T21:44:26.791Z,4.03
2023-03-26T21:46:59.872Z,4.37
2023-03-26T21:49:34.047Z,4.72
2023-03-26T21:52:07.460Z,4.12
2023-03-26T21:57:34.443Z,3.98
2023-03-26T22:00:19.057Z,4.50
2023-03-26T22:03:26.759Z,4.15
2023-03-26T22:06:14.920Z,4.00
2023-03-26T22:08:49.544Z,4.45
2023-03-26T22:11:22.561Z,3.95
2023-03-26T22:13:57.137Z,3.90
2023-03-26T22:19:02.144Z,4.97
2023-03-26T22:21:36.162Z,4.55
2023-03-26T22:24:10.419Z,3.98
2023-03-26T22:26:43.490Z,4.47
2023-03-26T22:29:17.134Z,4.10
2023-03-26T22:31:49.814Z,4.20
2023-03-26T22:34:23.993Z,4.17
2023-03-26T22:36:57.520Z,3.80
2023-03-26T22:39:31.486Z,4.20
2023-03-26T22:42:05.318Z,3.47
2023-03-26T22:44:38.869Z,3.72
2023-03-26T22:47:13.362Z,3.60
2023-03-26T22:49:46.911Z,3.90
2023-03-26T22:52:20.346Z,4.10
2023-03-26T22:54:53.310Z,3.65
2023-03-26T22:57:27.770Z,3.62
2023-03-26T23:00:02.459Z,3.60
2023-03-26T23:02:36.804Z,3.30
2023-03-26T23:05:11.654Z,3.17
2023-03-26T23:07:46.462Z,3.27
2023-03-26T23:10:19.687Z,3.40
2023-03-26T23:12:54.572Z,3.40
2023-03-26T23:15:28.008Z,3.25
2023-03-26T23:18:02.275Z,3.17
2023-03-26T23:23:09.556Z,3.70
2023-03-26T23:28:20.022Z,3.30
2023-03-26T23:30:55.610Z,3.85
2023-03-26T23:33:35.482Z,4.05
2023-03-26T23:36:11.032Z,3.27
2023-03-26T23:38:47.027Z,3.45
2023-03-26T23:41:25.538Z,3.42
2023-03-26T23:43:58.221Z,3.02
2023-03-26T23:46:33.212Z,3.50
2023-03-26T23:49:06.319Z,3.55
2023-03-26T23:51:39.508Z,4.20
2023-03-26T23:54:13.058Z,4.10
2023-03-26T23:56:46.272Z,3.65
2023-03-26T23:59:19.491Z,3.45
